sensor_id;sensor_type;location;lat;lon;timestamp;P1;durP1;ratioP1;P2;durP2;ratioP2
14883;SDS011;7534;50.762;7.000;2024-03-08T00:01:15;18.90;;;15.27;;
14883;SDS011;7534;50.762;7.000;2024-03-08T00:03:41;20.43;;;16.50;;
14883;SDS011;7534;50.762;7.000;2024-03-08T00:06:07;18.60;;;16.40;;
14883;SDS011;7534;50.762;7.000;2024-03-08T00:08:33;18.23;;;15.37;;
14883;SDS011;7534;50.762;7.000;2024-03-08T00:10:59;20.10;;;16.53;;
14883;SDS011;7534;50.762;7.000;2024-03-08T00:13:25;18.80;;;16.23;;
14883;SDS011;7534;50.762;7.000;2024-03-08T00:15:50;17.93;;;15.50;;
14883;SDS011;7534;50.762;7.000;2024-03-08T00:18:16;18.40;;;16.37;;
14883;SDS011;7534;50.762;7.000;2024-03-08T00:20:42;18.67;;;15.60;;
14883;SDS011;7534;50.762;7.000;2024-03-08T00:23:09;18.53;;;16.50;;
14883;SDS011;7534;50.762;7.000;2024-03-08T00:25:36;19.40;;;16.57;;
14883;SDS011;7534;50.762;7.000;2024-03-08T00:28:02;17.87;;;15.97;;
14883;SDS011;7534;50.762;7.000;2024-03-08T00:30:31;19.97;;;16.67;;
14883;SDS011;7534;50.762;7.000;2024-03-08T00:32:57;19.10;;;16.40;;
14883;SDS011;7534;50.762;7.000;2024-03-08T00:35:22;20.87;;;17.23;;
14883;SDS011;7534;50.762;7.000;2024-03-08T00:37:48;20.00;;;16.80;;
14883;SDS011;7534;50.762;7.000;2024-03-08T00:40:14;20.37;;;17.30;;
14883;SDS011;7534;50.762;7.000;2024-03-08T00:42:40;19.00;;;16.80;;
14883;SDS011;7534;50.762;7.000;2024-03-08T00:45:07;21.73;;;17.40;;
14883;SDS011;7534;50.762;7.000;2024-03-08T00:47:35;18.23;;;15.90;;
14883;SDS011;7534;50.762;7.000;2024-03-08T00:50:00;20.90;;;17.70;;
14883;SDS011;7534;50.762;7.000;2024-03-08T00:52:28;19.80;;;16.03;;
14883;SDS011;7534;50.762;7.000;2024-03-08T00:54:54;20.70;;;16.60;;
14883;SDS011;7534;50.762;7.000;2024-03-08T00:57:20;21.80;;;17.20;;
14883;SDS011;7534;50.762;7.000;2024-03-08T00:59:46;20.27;;;16.50;;
14883;SDS011;7534;50.762;7.000;2024-03-08T01:02:13;20.83;;;16.57;;
14883;SDS011;7534;50.762;7.000;2024-03-08T01:04:39;21.33;;;17.40;;
14883;SDS011;7534;50.762;7.000;2024-03-08T01:07:04;22.67;;;17.97;;
14883;SDS011;7534;50.762;7.000;2024-03-08T01:09:30;22.37;;;17.63;;
14883;SDS011;7534;50.762;7.000;2024-03-08T01:11:56;19.97;;;16.93;;
14883;SDS011;7534;50.762;7.000;2024-03-08T01:14:23;23.47;;;17.70;;
14883;SDS011;7534;50.762;7.000;2024-03-08T01:16:50;21.90;;;17.83;;
14883;SDS011;7534;50.762;7.000;2024-03-08T01:19:16;21.30;;;17.13;;
14883;SDS011;7534;50.762;7.000;2024-03-08T01:21:42;21.27;;;17.83;;
14883;SDS011;7534;50.762;7.000;2024-03-08T01:24:08;21.43;;;17.53;;
14883;SDS011;7534;50.762;7.000;2024-03-08T01:26:34;20.70;;;16.87;;
14883;SDS011;7534;50.762;7.000;2024-03-08T01:29:00;22.10;;;16.43;;
14883;SDS011;7534;50.762;7.000;2024-03-08T01:31:28;21.67;;;17.40;;
14883;SDS011;7534;50.762;7.000;2024-03-08T01:33:55;19.27;;;16.40;;
14883;SDS011;7534;50.762;7.000;2024-03-08T01:36:21;21.13;;;16.77;;
14883;SDS011;7534;50.762;7.000;2024-03-08T01:38:47;20.60;;;15.80;;
14883;SDS011;7534;50.762;7.000;2024-03-08T01:41:12;20.17;;;16.23;;
14883;SDS011;7534;50.762;7.000;2024-03-08T01:43:39;18.77;;;15.60;;
14883;SDS011;7534;50.762;7.000;2024-03-08T01:46:04;20.50;;;16.27;;
14883;SDS011;7534;50.762;7.000;2024-03-08T01:48:33;19.43;;;15.77;;
14883;SDS011;7534;50.762;7.000;2024-03-08T01:50:59;21.43;;;17.07;;
14883;SDS011;7534;50.762;7.000;2024-03-08T01:53:25;21.90;;;16.53;;
14883;SDS011;7534;50.762;7.000;2024-03-08T01:55:56;21.80;;;17.20;;
14883;SDS011;7534;50.762;7.000;2024-03-08T01:58:23;21.93;;;16.87;;
14883;SDS011;7534;50.762;7.000;2024-03-08T02:00:53;22.53;;;16.83;;
14883;SDS011;7534;50.762;7.000;2024-03-08T02:03:19;22.30;;;17.73;;
14883;SDS011;7534;50.762;7.000;2024-03-08T02:05:46;19.50;;;15.73;;
14883;SDS011;7534;50.762;7.000;2024-03-08T02:08:11;20.27;;;16.83;;
14883;SDS011;7534;50.762;7.000;2024-03-08T02:10:39;19.07;;;14.60;;
14883;SDS011;7534;50.762;7.000;2024-03-08T02:13:06;20.90;;;16.00;;
14883;SDS011;7534;50.762;7.000;2024-03-08T02:15:51;22.07;;;17.33;;
14883;SDS011;7534;50.762;7.000;2024-03-08T02:18:21;22.03;;;17.40;;
14883;SDS011;7534;50.762;7.000;2024-03-08T02:23:20;19.53;;;16.03;;
14883;SDS011;7534;50.762;7.000;2024-03-08T02:25:47;20.93;;;16.50;;
14883;SDS011;7534;50.762;7.000;2024-03-08T02:28:13;20.40;;;16.90;;
14883;SDS011;7534;50.762;7.000;2024-03-08T02:30:39;20.93;;;15.47;;
14883;SDS011;7534;50.762;7.000;2024-03-08T02:33:05;21.07;;;16.27;;
14883;SDS011;7534;50.762;7.000;2024-03-08T02:35:32;20.60;;;16.37;;
14883;SDS011;7534;50.762;7.000;2024-03-08T02:37:59;19.83;;;15.47;;
14883;SDS011;7534;50.762;7.000;2024-03-08T02:40:25;22.53;;;16.37;;
14883;SDS011;7534;50.762;7.000;2024-03-08T02:42:51;23.93;;;19.03;;
14883;SDS011;7534;50.762;7.000;2024-03-08T02:45:16;23.83;;;17.73;;
14883;SDS011;7534;50.762;7.000;2024-03-08T02:47:42;24.77;;;18.07;;
14883;SDS011;7534;50.762;7.000;2024-03-08T02:50:10;19.83;;;15.37;;
14883;SDS011;7534;50.762;7.000;2024-03-08T02:52:36;21.20;;;16.53;;
14883;SDS011;7534;50.762;7.000;2024-03-08T02:55:02;20.33;;;16.67;;
14883;SDS011;7534;50.762;7.000;2024-03-08T02:57:31;21.30;;;17.63;;
14883;SDS011;7534;50.762;7.000;2024-03-08T02:59:57;21.43;;;16.57;;
14883;SDS011;7534;50.762;7.000;2024-03-08T03:02:24;20.63;;;17.00;;
14883;SDS011;7534;50.762;7.000;2024-03-08T03:04:51;24.47;;;18.57;;
14883;SDS011;7534;50.762;7.000;2024-03-08T03:07:17;25.03;;;19.53;;
14883;SDS011;7534;50.762;7.000;2024-03-08T03:09:43;26.33;;;18.67;;
14883;SDS011;7534;50.762;7.000;2024-03-08T03:12:09;24.77;;;19.53;;
14883;SDS011;7534;50.762;7.000;2024-03-08T03:14:37;26.47;;;18.63;;
14883;SDS011;7534;50.762;7.000;2024-03-08T03:17:05;23.57;;;18.77;;
14883;SDS011;7534;50.762;7.000;2024-03-08T03:19:31;22.97;;;17.10;;
14883;SDS011;7534;50.762;7.000;2024-03-08T03:21:57;20.13;;;16.67;;
14883;SDS011;7534;50.762;7.000;2024-03-08T03:24:22;24.13;;;17.97;;
14883;SDS011;7534;50.762;7.000;2024-03-08T03:26:48;20.37;;;16.40;;
14883;SDS011;7534;50.762;7.000;2024-03-08T03:29:14;21.73;;;16.93;;
14883;SDS011;7534;50.762;7.000;2024-03-08T03:31:41;20.13;;;15.90;;
14883;SDS011;7534;50.762;7.000;2024-03-08T03:34:11;23.00;;;16.97;;
14883;SDS011;7534;50.762;7.000;2024-03-08T03:36:37;22.53;;;17.57;;
14883;SDS011;7534;50.762;7.000;2024-03-08T03:39:07;25.97;;;19.37;;
14883;SDS011;7534;50.762;7.000;2024-03-08T03:41:45;24.53;;;17.33;;
14883;SDS011;7534;50.762;7.000;2024-03-08T03:44:11;23.90;;;17.23;;
14883;SDS011;7534;50.762;7.000;2024-03-08T03:46:37;24.10;;;17.37;;
14883;SDS011;7534;50.762;7.000;2024-03-08T03:49:02;22.53;;;17.73;;
14883;SDS011;7534;50.762;7.000;2024-03-08T03:51:28;23.87;;;17.20;;
14883;SDS011;7534;50.762;7.000;2024-03-08T03:53:55;21.10;;;17.00;;
14883;SDS011;7534;50.762;7.000;2024-03-08T03:56:25;25.97;;;17.80;;
14883;SDS011;7534;50.762;7.000;2024-03-08T03:58:51;23.20;;;17.23;;
14883;SDS011;7534;50.762;7.000;2024-03-08T04:01:17;23.80;;;17.13;;
14883;SDS011;7534;50.762;7.000;2024-03-08T04:03:43;22.87;;;17.13;;
14883;SDS011;7534;50.762;7.000;2024-03-08T04:06:09;24.13;;;17.73;;
14883;SDS011;7534;50.762;7.000;2024-03-08T04:08:34;22.20;;;16.90;;
14883;SDS011;7534;50.762;7.000;2024-03-08T04:11:01;24.10;;;18.07;;
14883;SDS011;7534;50.762;7.000;2024-03-08T04:13:27;24.87;;;18.70;;
14883;SDS011;7534;50.762;7.000;2024-03-08T04:15:53;24.37;;;18.03;;
14883;SDS011;7534;50.762;7.000;2024-03-08T04:18:18;21.13;;;16.10;;
14883;SDS011;7534;50.762;7.000;2024-03-08T04:20:44;22.67;;;16.30;;
14883;SDS011;7534;50.762;7.000;2024-03-08T04:23:10;22.03;;;16.27;;
14883;SDS011;7534;50.762;7.000;2024-03-08T04:25:36;24.53;;;17.30;;
14883;SDS011;7534;50.762;7.000;2024-03-08T04:28:02;22.57;;;16.70;;
14883;SDS011;7534;50.762;7.000;2024-03-08T04:30:28;22.73;;;18.27;;
14883;SDS011;7534;50.762;7.000;2024-03-08T04:32:55;22.93;;;17.40;;
14883;SDS011;7534;50.762;7.000;2024-03-08T04:35:20;23.13;;;17.53;;
14883;SDS011;7534;50.762;7.000;2024-03-08T04:37:46;24.90;;;18.37;;
14883;SDS011;7534;50.762;7.000;2024-03-08T04:40:12;21.00;;;16.40;;
14883;SDS011;7534;50.762;7.000;2024-03-08T04:42:38;21.80;;;15.90;;
14883;SDS011;7534;50.762;7.000;2024-03-08T04:45:05;26.20;;;19.13;;
14883;SDS011;7534;50.762;7.000;2024-03-08T04:47:33;25.03;;;18.57;;
14883;SDS011;7534;50.762;7.000;2024-03-08T04:49:58;24.67;;;17.87;;
14883;SDS011;7534;50.762;7.000;2024-03-08T04:52:24;25.70;;;18.40;;
14883;SDS011;7534;50.762;7.000;2024-03-08T04:54:50;24.30;;;18.13;;
14883;SDS011;7534;50.762;7.000;2024-03-08T04:57:16;25.13;;;18.13;;
14883;SDS011;7534;50.762;7.000;2024-03-08T04:59:45;23.77;;;17.93;;
14883;SDS011;7534;50.762;7.000;2024-03-08T05:02:10;28.90;;;20.17;;
14883;SDS011;7534;50.762;7.000;2024-03-08T05:04:36;26.60;;;19.37;;
14883;SDS011;7534;50.762;7.000;2024-03-08T05:07:02;26.77;;;19.23;;
14883;SDS011;7534;50.762;7.000;2024-03-08T05:09:29;28.37;;;18.77;;
14883;SDS011;7534;50.762;7.000;2024-03-08T05:11:56;23.53;;;17.40;;
14883;SDS011;7534;50.762;7.000;2024-03-08T05:14:24;27.43;;;19.60;;
14883;SDS011;7534;50.762;7.000;2024-03-08T05:16:50;27.13;;;19.40;;
14883;SDS011;7534;50.762;7.000;2024-03-08T05:19:16;29.13;;;19.00;;
14883;SDS011;7534;50.762;7.000;2024-03-08T05:21:43;24.00;;;17.47;;
14883;SDS011;7534;50.762;7.000;2024-03-08T05:24:10;26.03;;;18.17;;
14883;SDS011;7534;50.762;7.000;2024-03-08T05:26:36;25.13;;;17.60;;
14883;SDS011;7534;50.762;7.000;2024-03-08T05:29:04;30.80;;;21.07;;
14883;SDS011;7534;50.762;7.000;2024-03-08T05:31:31;28.13;;;19.30;;
14883;SDS011;7534;50.762;7.000;2024-03-08T05:34:11;30.23;;;20.50;;
14883;SDS011;7534;50.762;7.000;2024-03-08T05:36:39;28.37;;;20.77;;
14883;SDS011;7534;50.762;7.000;2024-03-08T05:39:08;30.73;;;20.57;;
14883;SDS011;7534;50.762;7.000;2024-03-08T05:41:36;28.97;;;20.07;;
14883;SDS011;7534;50.762;7.000;2024-03-08T05:44:06;29.13;;;20.43;;
14883;SDS011;7534;50.762;7.000;2024-03-08T05:46:31;25.83;;;19.37;;
14883;SDS011;7534;50.762;7.000;2024-03-08T05:48:57;28.67;;;20.33;;
14883;SDS011;7534;50.762;7.000;2024-03-08T05:51:24;31.00;;;20.03;;
14883;SDS011;7534;50.762;7.000;2024-03-08T05:53:52;28.33;;;20.03;;
14883;SDS011;7534;50.762;7.000;2024-03-08T05:56:20;29.40;;;20.00;;
14883;SDS011;7534;50.762;7.000;2024-03-08T05:58:48;27.47;;;19.33;;
14883;SDS011;7534;50.762;7.000;2024-03-08T06:01:15;27.13;;;20.30;;
14883;SDS011;7534;50.762;7.000;2024-03-08T06:03:41;26.50;;;19.20;;
14883;SDS011;7534;50.762;7.000;2024-03-08T06:06:13;28.70;;;19.93;;
14883;SDS011;7534;50.762;7.000;2024-03-08T06:08:39;26.17;;;19.33;;
14883;SDS011;7534;50.762;7.000;2024-03-08T06:11:07;30.10;;;20.07;;
14883;SDS011;7534;50.762;7.000;2024-03-08T06:13:33;26.27;;;18.47;;
14883;SDS011;7534;50.762;7.000;2024-03-08T06:16:00;29.80;;;19.10;;
14883;SDS011;7534;50.762;7.000;2024-03-08T06:18:29;27.03;;;19.20;;
14883;SDS011;7534;50.762;7.000;2024-03-08T06:20:55;26.07;;;19.63;;
14883;SDS011;7534;50.762;7.000;2024-03-08T06:23:21;30.97;;;21.83;;
14883;SDS011;7534;50.762;7.000;2024-03-08T06:25:48;27.27;;;20.33;;
14883;SDS011;7534;50.762;7.000;2024-03-08T06:28:13;25.30;;;19.00;;
14883;SDS011;7534;50.762;7.000;2024-03-08T06:30:39;26.60;;;20.20;;
14883;SDS011;7534;50.762;7.000;2024-03-08T06:33:06;25.60;;;19.23;;
14883;SDS011;7534;50.762;7.000;2024-03-08T06:35:32;24.07;;;17.87;;
14883;SDS011;7534;50.762;7.000;2024-03-08T06:37:58;26.23;;;18.03;;
14883;SDS011;7534;50.762;7.000;2024-03-08T06:40:24;22.77;;;17.07;;
14883;SDS011;7534;50.762;7.000;2024-03-08T06:42:49;23.20;;;16.67;;
14883;SDS011;7534;50.762;7.000;2024-03-08T06:45:17;20.63;;;16.43;;
14883;SDS011;7534;50.762;7.000;2024-03-08T06:47:45;21.93;;;16.47;;
14883;SDS011;7534;50.762;7.000;2024-03-08T06:50:12;21.70;;;16.10;;
14883;SDS011;7534;50.762;7.000;2024-03-08T06:52:40;22.43;;;17.00;;
14883;SDS011;7534;50.762;7.000;2024-03-08T06:55:07;21.20;;;16.07;;
14883;SDS011;7534;50.762;7.000;2024-03-08T06:57:37;19.73;;;16.80;;
14883;SDS011;7534;50.762;7.000;2024-03-08T07:00:05;18.80;;;15.83;;
14883;SDS011;7534;50.762;7.000;2024-03-08T07:02:35;23.50;;;16.27;;
14883;SDS011;7534;50.762;7.000;2024-03-08T07:05:01;21.52;;;19.08;;
14883;SDS011;7534;50.762;7.000;2024-03-08T07:07:28;21.53;;;16.57;;
14883;SDS011;7534;50.762;7.000;2024-03-08T07:09:56;19.70;;;16.37;;
14883;SDS011;7534;50.762;7.000;2024-03-08T07:12:22;21.33;;;17.07;;
14883;SDS011;7534;50.762;7.000;2024-03-08T07:14:48;22.17;;;17.03;;
14883;SDS011;7534;50.762;7.000;2024-03-08T07:17:14;22.30;;;16.73;;
14883;SDS011;7534;50.762;7.000;2024-03-08T07:19:41;21.67;;;16.13;;
14883;SDS011;7534;50.762;7.000;2024-03-08T07:22:07;19.20;;;15.63;;
14883;SDS011;7534;50.762;7.000;2024-03-08T07:24:36;20.67;;;15.60;;
14883;SDS011;7534;50.762;7.000;2024-03-08T07:27:02;19.33;;;15.30;;
14883;SDS011;7534;50.762;7.000;2024-03-08T07:29:30;19.57;;;15.77;;
14883;SDS011;7534;50.762;7.000;2024-03-08T07:31:57;20.97;;;16.40;;
14883;SDS011;7534;50.762;7.000;2024-03-08T07:34:37;21.27;;;16.40;;
14883;SDS011;7534;50.762;7.000;2024-03-08T07:37:04;19.70;;;15.33;;
14883;SDS011;7534;50.762;7.000;2024-03-08T07:39:35;18.80;;;15.23;;
14883;SDS011;7534;50.762;7.000;2024-03-08T07:42:03;18.33;;;15.93;;
14883;SDS011;7534;50.762;7.000;2024-03-08T07:44:29;18.83;;;15.93;;
14883;SDS011;7534;50.762;7.000;2024-03-08T07:46:56;21.10;;;15.47;;
14883;SDS011;7534;50.762;7.000;2024-03-08T07:49:22;18.93;;;15.20;;
14883;SDS011;7534;50.762;7.000;2024-03-08T07:51:48;19.23;;;15.57;;
14883;SDS011;7534;50.762;7.000;2024-03-08T07:54:14;18.43;;;15.70;;
14883;SDS011;7534;50.762;7.000;2024-03-08T07:56:40;17.07;;;14.83;;
14883;SDS011;7534;50.762;7.000;2024-03-08T07:59:07;19.33;;;16.80;;
14883;SDS011;7534;50.762;7.000;2024-03-08T08:01:33;17.27;;;15.40;;
14883;SDS011;7534;50.762;7.000;2024-03-08T08:03:59;19.10;;;16.17;;
14883;SDS011;7534;50.762;7.000;2024-03-08T08:06:26;19.20;;;17.20;;
14883;SDS011;7534;50.762;7.000;2024-03-08T08:08:52;20.07;;;16.43;;
14883;SDS011;7534;50.762;7.000;2024-03-08T08:11:18;17.33;;;15.53;;
14883;SDS011;7534;50.762;7.000;2024-03-08T08:13:45;18.97;;;16.03;;
14883;SDS011;7534;50.762;7.000;2024-03-08T08:16:10;17.87;;;15.97;;
14883;SDS011;7534;50.762;7.000;2024-03-08T08:18:38;17.13;;;15.33;;
14883;SDS011;7534;50.762;7.000;2024-03-08T08:21:04;17.07;;;15.27;;
14883;SDS011;7534;50.762;7.000;2024-03-08T08:23:33;17.97;;;15.50;;
14883;SDS011;7534;50.762;7.000;2024-03-08T08:25:59;18.77;;;16.17;;
14883;SDS011;7534;50.762;7.000;2024-03-08T08:28:26;21.37;;;15.67;;
14883;SDS011;7534;50.762;7.000;2024-03-08T08:30:52;18.30;;;15.20;;
14883;SDS011;7534;50.762;7.000;2024-03-08T08:33:17;17.33;;;15.37;;
14883;SDS011;7534;50.762;7.000;2024-03-08T08:35:44;17.93;;;16.00;;
14883;SDS011;7534;50.762;7.000;2024-03-08T08:38:10;18.90;;;16.10;;
14883;SDS011;7534;50.762;7.000;2024-03-08T08:40:36;17.97;;;15.20;;
14883;SDS011;7534;50.762;7.000;2024-03-08T08:43:02;17.27;;;15.30;;
14883;SDS011;7534;50.762;7.000;2024-03-08T08:45:32;17.67;;;15.17;;
14883;SDS011;7534;50.762;7.000;2024-03-08T08:47:59;16.73;;;14.27;;
14883;SDS011;7534;50.762;7.000;2024-03-08T08:50:25;16.00;;;14.37;;
14883;SDS011;7534;50.762;7.000;2024-03-08T08:52:53;15.83;;;14.13;;
14883;SDS011;7534;50.762;7.000;2024-03-08T08:55:19;14.93;;;13.47;;
14883;SDS011;7534;50.762;7.000;2024-03-08T08:57:46;16.13;;;14.43;;
14883;SDS011;7534;50.762;7.000;2024-03-08T09:00:13;15.33;;;13.73;;
14883;SDS011;7534;50.762;7.000;2024-03-08T09:02:41;16.77;;;14.57;;
14883;SDS011;7534;50.762;7.000;2024-03-08T09:05:07;15.63;;;13.97;;
14883;SDS011;7534;50.762;7.000;2024-03-08T09:07:33;15.40;;;13.20;;
14883;SDS011;7534;50.762;7.000;2024-03-08T09:10:02;14.43;;;12.97;;
14883;SDS011;7534;50.762;7.000;2024-03-08T09:12:28;15.20;;;13.00;;
14883;SDS011;7534;50.762;7.000;2024-03-08T09:14:54;15.13;;;13.53;;
14883;SDS011;7534;50.762;7.000;2024-03-08T09:17:19;16.50;;;13.70;;
14883;SDS011;7534;50.762;7.000;2024-03-08T09:19:49;15.00;;;13.50;;
14883;SDS011;7534;50.762;7.000;2024-03-08T09:22:15;13.97;;;12.57;;
14883;SDS011;7534;50.762;7.000;2024-03-08T09:24:41;14.13;;;12.73;;
14883;SDS011;7534;50.762;7.000;2024-03-08T09:27:08;14.37;;;12.87;;
14883;SDS011;7534;50.762;7.000;2024-03-08T09:29:35;14.50;;;12.80;;
14883;SDS011;7534;50.762;7.000;2024-03-08T09:32:01;14.80;;;13.20;;
14883;SDS011;7534;50.762;7.000;2024-03-08T09:34:28;14.07;;;12.67;;
14883;SDS011;7534;50.762;7.000;2024-03-08T09:36:53;26.40;;;24.27;;
14883;SDS011;7534;50.762;7.000;2024-03-08T09:39:19;14.88;;;13.48;;
14883;SDS011;7534;50.762;7.000;2024-03-08T09:41:46;14.20;;;12.80;;
14883;SDS011;7534;50.762;7.000;2024-03-08T09:44:18;13.90;;;12.50;;
14883;SDS011;7534;50.762;7.000;2024-03-08T09:46:45;14.60;;;13.20;;
14883;SDS011;7534;50.762;7.000;2024-03-08T09:49:16;13.95;;;12.63;;
14883;SDS011;7534;50.762;7.000;2024-03-08T09:51:42;14.00;;;12.60;;
14883;SDS011;7534;50.762;7.000;2024-03-08T09:54:07;13.20;;;11.90;;
14883;SDS011;7534;50.762;7.000;2024-03-08T09:56:34;13.37;;;12.07;;
14883;SDS011;7534;50.762;7.000;2024-03-08T09:59:01;12.70;;;11.40;;
14883;SDS011;7534;50.762;7.000;2024-03-08T10:01:36;13.40;;;12.00;;
14883;SDS011;7534;50.762;7.000;2024-03-08T10:04:03;12.50;;;11.30;;
14883;SDS011;7534;50.762;7.000;2024-03-08T10:06:29;13.38;;;12.07;;
14883;SDS011;7534;50.762;7.000;2024-03-08T10:08:56;13.23;;;12.02;;
14883;SDS011;7534;50.762;7.000;2024-03-08T10:11:22;11.77;;;10.57;;
14883;SDS011;7534;50.762;7.000;2024-03-08T10:13:49;12.97;;;11.30;;
14883;SDS011;7534;50.762;7.000;2024-03-08T10:16:16;11.80;;;10.60;;
14883;SDS011;7534;50.762;7.000;2024-03-08T10:18:47;11.80;;;10.60;;
14883;SDS011;7534;50.762;7.000;2024-03-08T10:21:13;11.60;;;10.50;;
14883;SDS011;7534;50.762;7.000;2024-03-08T10:23:40;11.63;;;10.43;;
14883;SDS011;7534;50.762;7.000;2024-03-08T10:26:12;11.30;;;10.17;;
14883;SDS011;7534;50.762;7.000;2024-03-08T10:28:46;12.00;;;10.70;;
14883;SDS011;7534;50.762;7.000;2024-03-08T10:31:13;11.00;;;9.90;;
14883;SDS011;7534;50.762;7.000;2024-03-08T10:33:44;11.57;;;10.17;;
14883;SDS011;7534;50.762;7.000;2024-03-08T10:36:11;12.70;;;10.83;;
14883;SDS011;7534;50.762;7.000;2024-03-08T10:38:39;11.03;;;9.83;;
14883;SDS011;7534;50.762;7.000;2024-03-08T10:41:07;11.33;;;10.20;;
14883;SDS011;7534;50.762;7.000;2024-03-08T10:44:21;10.70;;;9.27;;
14883;SDS011;7534;50.762;7.000;2024-03-08T10:49:38;11.83;;;9.97;;
14883;SDS011;7534;50.762;7.000;2024-03-08T10:52:10;12.13;;;9.70;;
14883;SDS011;7534;50.762;7.000;2024-03-08T10:54:38;12.23;;;10.37;;
14883;SDS011;7534;50.762;7.000;2024-03-08T10:57:06;10.83;;;9.73;;
14883;SDS011;7534;50.762;7.000;2024-03-08T10:59:34;11.67;;;10.43;;
14883;SDS011;7534;50.762;7.000;2024-03-08T11:02:01;11.30;;;10.07;;
14883;SDS011;7534;50.762;7.000;2024-03-08T11:04:27;11.03;;;9.77;;
14883;SDS011;7534;50.762;7.000;2024-03-08T11:06:54;11.23;;;9.83;;
14883;SDS011;7534;50.762;7.000;2024-03-08T11:09:32;10.67;;;9.57;;
14883;SDS011;7534;50.762;7.000;2024-03-08T11:14:51;12.73;;;10.07;;
14883;SDS011;7534;50.762;7.000;2024-03-08T11:17:25;11.07;;;9.87;;
14883;SDS011;7534;50.762;7.000;2024-03-08T11:19:57;11.43;;;10.17;;
14883;SDS011;7534;50.762;7.000;2024-03-08T11:22:31;11.83;;;9.80;;
14883;SDS011;7534;50.762;7.000;2024-03-08T11:24:58;10.87;;;9.43;;
14883;SDS011;7534;50.762;7.000;2024-03-08T11:27:33;11.67;;;10.20;;
14883;SDS011;7534;50.762;7.000;2024-03-08T11:30:00;11.23;;;10.13;;
14883;SDS011;7534;50.762;7.000;2024-03-08T11:32:46;10.43;;;9.33;;
14883;SDS011;7534;50.762;7.000;2024-03-08T11:35:19;11.03;;;9.90;;
14883;SDS011;7534;50.762;7.000;2024-03-08T11:37:48;12.10;;;10.53;;
14883;SDS011;7534;50.762;7.000;2024-03-08T11:40:15;11.30;;;10.20;;
14883;SDS011;7534;50.762;7.000;2024-03-08T11:42:45;10.97;;;9.87;;
14883;SDS011;7534;50.762;7.000;2024-03-08T11:45:16;16.10;;;12.80;;
14883;SDS011;7534;50.762;7.000;2024-03-08T11:47:43;11.03;;;9.97;;
14883;SDS011;7534;50.762;7.000;2024-03-08T11:50:12;10.87;;;9.67;;
14883;SDS011;7534;50.762;7.000;2024-03-08T11:52:39;13.67;;;9.83;;
14883;SDS011;7534;50.762;7.000;2024-03-08T11:55:05;9.80;;;8.70;;
14883;SDS011;7534;50.762;7.000;2024-03-08T11:57:31;10.87;;;9.23;;
14883;SDS011;7534;50.762;7.000;2024-03-08T11:59:58;10.00;;;9.00;;
14883;SDS011;7534;50.762;7.000;2024-03-08T12:02:31;10.70;;;9.60;;
14883;SDS011;7534;50.762;7.000;2024-03-08T12:05:03;10.17;;;9.13;;
14883;SDS011;7534;50.762;7.000;2024-03-08T12:07:34;10.33;;;9.33;;
14883;SDS011;7534;50.762;7.000;2024-03-08T12:13:00;11.17;;;9.57;;
14883;SDS011;7534;50.762;7.000;2024-03-08T12:15:26;11.13;;;9.90;;
14883;SDS011;7534;50.762;7.000;2024-03-08T12:17:53;12.57;;;9.90;;
14883;SDS011;7534;50.762;7.000;2024-03-08T12:20:21;11.40;;;10.03;;
14883;SDS011;7534;50.762;7.000;2024-03-08T12:22:54;11.80;;;10.70;;
14883;SDS011;7534;50.762;7.000;2024-03-08T12:25:22;11.83;;;10.63;;
14883;SDS011;7534;50.762;7.000;2024-03-08T12:28:07;11.10;;;9.50;;
14883;SDS011;7534;50.762;7.000;2024-03-08T12:33:15;11.00;;;10.00;;
14883;SDS011;7534;50.762;7.000;2024-03-08T12:35:49;9.97;;;8.97;;
14883;SDS011;7534;50.762;7.000;2024-03-08T12:38:20;10.10;;;9.10;;
14883;SDS011;7534;50.762;7.000;2024-03-08T12:40:50;10.50;;;8.70;;
14883;SDS011;7534;50.762;7.000;2024-03-08T12:43:20;11.33;;;10.23;;
14883;SDS011;7534;50.762;7.000;2024-03-08T12:45:46;10.47;;;9.40;;
14883;SDS011;7534;50.762;7.000;2024-03-08T12:48:15;10.33;;;9.23;;
14883;SDS011;7534;50.762;7.000;2024-03-08T12:50:41;10.50;;;9.40;;
14883;SDS011;7534;50.762;7.000;2024-03-08T12:53:12;10.27;;;9.17;;
14883;SDS011;7534;50.762;7.000;2024-03-08T12:55:38;9.97;;;8.97;;
14883;SDS011;7534;50.762;7.000;2024-03-08T12:58:05;10.60;;;9.50;;
14883;SDS011;7534;50.762;7.000;2024-03-08T13:00:32;9.60;;;8.70;;
14883;SDS011;7534;50.762;7.000;2024-03-08T13:03:01;10.23;;;9.23;;
14883;SDS011;7534;50.762;7.000;2024-03-08T13:05:28;10.27;;;9.17;;
14883;SDS011;7534;50.762;7.000;2024-03-08T13:07:55;10.70;;;9.60;;
14883;SDS011;7534;50.762;7.000;2024-03-08T13:10:21;10.33;;;9.23;;
14883;SDS011;7534;50.762;7.000;2024-03-08T13:12:47;10.47;;;9.37;;
14883;SDS011;7534;50.762;7.000;2024-03-08T13:15:13;11.68;;;10.48;;
14883;SDS011;7534;50.762;7.000;2024-03-08T13:17:45;11.23;;;10.13;;
14883;SDS011;7534;50.762;7.000;2024-03-08T13:20:14;10.43;;;9.33;;
14883;SDS011;7534;50.762;7.000;2024-03-08T13:22:43;9.87;;;8.87;;
14883;SDS011;7534;50.762;7.000;2024-03-08T13:25:10;10.87;;;9.87;;
14883;SDS011;7534;50.762;7.000;2024-03-08T13:27:39;9.97;;;8.97;;
14883;SDS011;7534;50.762;7.000;2024-03-08T13:30:08;9.80;;;8.80;;
14883;SDS011;7534;50.762;7.000;2024-03-08T13:32:39;21.70;;;9.30;;
14883;SDS011;7534;50.762;7.000;2024-03-08T13:35:11;10.43;;;8.50;;
14883;SDS011;7534;50.762;7.000;2024-03-08T13:37:43;11.60;;;9.73;;
14883;SDS011;7534;50.762;7.000;2024-03-08T13:40:09;10.60;;;9.50;;
14883;SDS011;7534;50.762;7.000;2024-03-08T13:42:43;10.83;;;9.73;;
14883;SDS011;7534;50.762;7.000;2024-03-08T13:45:09;10.00;;;8.47;;
14883;SDS011;7534;50.762;7.000;2024-03-08T13:47:36;10.03;;;8.87;;
14883;SDS011;7534;50.762;7.000;2024-03-08T13:50:04;10.13;;;9.13;;
14883;SDS011;7534;50.762;7.000;2024-03-08T13:52:38;9.93;;;8.93;;
14883;SDS011;7534;50.762;7.000;2024-03-08T13:55:05;10.30;;;9.20;;
14883;SDS011;7534;50.762;7.000;2024-03-08T13:57:31;9.97;;;8.87;;
14883;SDS011;7534;50.762;7.000;2024-03-08T13:59:58;10.53;;;8.70;;
14883;SDS011;7534;50.762;7.000;2024-03-08T14:02:24;10.60;;;8.83;;
14883;SDS011;7534;50.762;7.000;2024-03-08T14:04:55;9.07;;;7.93;;
14883;SDS011;7534;50.762;7.000;2024-03-08T14:07:20;9.80;;;8.47;;
14883;SDS011;7534;50.762;7.000;2024-03-08T14:09:48;9.40;;;8.40;;
14883;SDS011;7534;50.762;7.000;2024-03-08T14:12:14;9.57;;;8.57;;
14883;SDS011;7534;50.762;7.000;2024-03-08T14:14:41;9.83;;;8.83;;
14883;SDS011;7534;50.762;7.000;2024-03-08T14:17:09;9.97;;;8.97;;
14883;SDS011;7534;50.762;7.000;2024-03-08T14:19:36;9.20;;;8.30;;
14883;SDS011;7534;50.762;7.000;2024-03-08T14:22:04;8.93;;;8.10;;
14883;SDS011;7534;50.762;7.000;2024-03-08T14:24:30;9.60;;;8.57;;
14883;SDS011;7534;50.762;7.000;2024-03-08T14:26:56;10.03;;;9.03;;
14883;SDS011;7534;50.762;7.000;2024-03-08T14:29:24;9.60;;;8.60;;
14883;SDS011;7534;50.762;7.000;2024-03-08T14:31:54;9.37;;;8.47;;
14883;SDS011;7534;50.762;7.000;2024-03-08T14:34:24;9.43;;;8.43;;
14883;SDS011;7534;50.762;7.000;2024-03-08T14:36:54;9.63;;;8.60;;
14883;SDS011;7534;50.762;7.000;2024-03-08T14:39:21;10.63;;;9.53;;
14883;SDS011;7534;50.762;7.000;2024-03-08T14:41:51;10.50;;;9.13;;
14883;SDS011;7534;50.762;7.000;2024-03-08T14:44:20;10.20;;;8.87;;
14883;SDS011;7534;50.762;7.000;2024-03-08T14:46:53;10.17;;;9.07;;
14883;SDS011;7534;50.762;7.000;2024-03-08T14:49:19;9.43;;;8.30;;
14883;SDS011;7534;50.762;7.000;2024-03-08T14:51:46;8.70;;;7.80;;
14883;SDS011;7534;50.762;7.000;2024-03-08T14:54:11;9.37;;;8.37;;